sensor_id;sensor_type;location;lat;lon;timestamp;pressure;altitude;pressure_sealevel;temperature;humidity
27358;BME280;14831;50.474;7.616;2023-01-28T00:01:58;98940;;;0.9;91.0
27358;BME280;14831;50.474;7.616;2023-01-28T00:06:58;98940;;;0.9;91.2
27358;BME280;14831;50.474;7.616;2023-01-28T00:11:58;98940;;;0.9;91.4
27358;BME280;14831;50.474;7.616;2023-01-28T00:16:58;98940;;;0.9;91.4
27358;BME280;14831;50.474;7.616;2023-01-28T00:21:58;98940;;;0.8;91.5
27358;BME280;14831;50.474;7.616;2023-01-28T00:26:58;98930;;;0.8;91.7
27358;BME280;14831;50.474;7.616;2023-01-28T00:31:58;98930;;;0.8;91.8
27358;BME280;14831;50.474;7.616;2023-01-28T00:36:58;98930;;;0.8;91.8
27358;BME280;14831;50.474;7.616;2023-01-28T00:41:58;98920;;;0.8;91.8
27358;BME280;14831;50.474;7.616;2023-01-28T00:46:58;98920;;;0.8;91.5
27358;BME280;14831;50.474;7.616;2023-01-28T00:51:58;98910;;;0.8;91.5
27358;BME280;14831;50.474;7.616;2023-01-28T00:56:58;98920;;;0.8;91.5
27358;BME280;14831;50.474;7.616;2023-01-28T01:01:58;98920;;;0.7;91.4
27358;BME280;14831;50.474;7.616;2023-01-28T01:06:58;98920;;;0.7;91.3
27358;BME280;14831;50.474;7.616;2023-01-28T01:11:58;98920;;;0.7;91.4
27358;BME280;14831;50.474;7.616;2023-01-28T01:16:58;98930;;;0.7;91.4
27358;BME280;14831;50.474;7.616;2023-01-28T01:21:58;98920;;;0.7;91.3
27358;BME280;14831;50.474;7.616;2023-01-28T01:26:58;98920;;;0.7;91.3
27358;BME280;14831;50.474;7.616;2023-01-28T01:31:59;98930;;;0.7;91.3
27358;BME280;14831;50.474;7.616;2023-01-28T01:36:58;98920;;;0.7;91.4
27358;BME280;14831;50.474;7.616;2023-01-28T01:41:58;98930;;;0.6;91.5
27358;BME280;14831;50.474;7.616;2023-01-28T01:46:58;98910;;;0.5;91.4
27358;BME280;14831;50.474;7.616;2023-01-28T01:51:59;98920;;;0.5;91.4
27358;BME280;14831;50.474;7.616;2023-01-28T01:56:59;98920;;;0.4;91.7
27358;BME280;14831;50.474;7.616;2023-01-28T02:01:58;98930;;;0.4;91.8
27358;BME280;14831;50.474;7.616;2023-01-28T02:06:59;98920;;;0.5;91.8
27358;BME280;14831;50.474;7.616;2023-01-28T02:11:59;98920;;;0.5;91.8
27358;BME280;14831;50.474;7.616;2023-01-28T02:16:59;98910;;;0.5;91.9
27358;BME280;14831;50.474;7.616;2023-01-28T02:22:04;98910;;;0.5;92.0
27358;BME280;14831;50.474;7.616;2023-01-28T02:27:03;98920;;;0.4;91.7
27358;BME280;14831;50.474;7.616;2023-01-28T02:31:59;98920;;;0.4;91.7
27358;BME280;14831;50.474;7.616;2023-01-28T02:36:58;98940;;;0.3;91.8
27358;BME280;14831;50.474;7.616;2023-01-28T02:42:00;98920;;;0.3;91.9
27358;BME280;14831;50.474;7.616;2023-01-28T02:46:58;98920;;;0.2;91.8
27358;BME280;14831;50.474;7.616;2023-01-28T02:52:03;98930;;;0.2;91.2
27358;BME280;14831;50.474;7.616;2023-01-28T02:57:00;98930;;;0.2;91.8
27358;BME280;14831;50.474;7.616;2023-01-28T03:01:59;98950;;;0.1;91.7
27358;BME280;14831;50.474;7.616;2023-01-28T03:06:59;98950;;;0.1;91.8
27358;BME280;14831;50.474;7.616;2023-01-28T03:12:02;98950;;;0.1;91.8
27358;BME280;14831;50.474;7.616;2023-01-28T03:16:58;98960;;;0.1;91.8
27358;BME280;14831;50.474;7.616;2023-01-28T03:21:58;98960;;;0.1;91.9
27358;BME280;14831;50.474;7.616;2023-01-28T03:27:00;98970;;;0.1;91.8
27358;BME280;14831;50.474;7.616;2023-01-28T03:31:58;98950;;;0.1;92.0
27358;BME280;14831;50.474;7.616;2023-01-28T03:36:58;98960;;;0.1;92.0
27358;BME280;14831;50.474;7.616;2023-01-28T03:41:59;98970;;;0.0;92.1
27358;BME280;14831;50.474;7.616;2023-01-28T03:46:58;98970;;;-0.0;96.2
27358;BME280;14831;50.474;7.616;2023-01-28T03:51:58;98980;;;-0.0;96.4
27358;BME280;14831;50.474;7.616;2023-01-28T03:56:58;98980;;;-0.0;96.3
27358;BME280;14831;50.474;7.616;2023-01-28T04:01:58;98980;;;0.0;92.4
27358;BME280;14831;50.474;7.616;2023-01-28T04:06:58;98980;;;-0.0;96.2
27358;BME280;14831;50.474;7.616;2023-01-28T04:11:58;98980;;;-0.0;96.1
27358;BME280;14831;50.474;7.616;2023-01-28T04:16:58;98980;;;-0.0;95.8
27358;BME280;14831;50.474;7.616;2023-01-28T04:21:58;98980;;;-0.0;95.7
27358;BME280;14831;50.474;7.616;2023-01-28T04:26:58;98980;;;-0.1;95.5
27358;BME280;14831;50.474;7.616;2023-01-28T04:31:58;98990;;;-0.1;95.2
27358;BME280;14831;50.474;7.616;2023-01-28T04:36:58;98990;;;-0.1;95.0
27358;BME280;14831;50.474;7.616;2023-01-28T04:41:58;98980;;;-0.1;95.1
27358;BME280;14831;50.474;7.616;2023-01-28T04:46:58;99000;;;-0.2;94.8
27358;BME280;14831;50.474;7.616;2023-01-28T04:51:58;98990;;;-0.2;94.7
27358;BME280;14831;50.474;7.616;2023-01-28T04:56:58;99000;;;-0.2;94.5
27358;BME280;14831;50.474;7.616;2023-01-28T05:01:58;99000;;;-0.2;94.9
27358;BME280;14831;50.474;7.616;2023-01-28T05:06:58;99000;;;-0.2;95.0
27358;BME280;14831;50.474;7.616;2023-01-28T05:11:58;98990;;;-0.3;95.2
27358;BME280;14831;50.474;7.616;2023-01-28T05:16:58;99000;;;-0.3;94.5
27358;BME280;14831;50.474;7.616;2023-01-28T05:21:58;99000;;;-0.3;94.9
27358;BME280;14831;50.474;7.616;2023-01-28T05:26:58;99000;;;-0.3;95.0
27358;BME280;14831;50.474;7.616;2023-01-28T05:31:58;99000;;;-0.3;94.3
27358;BME280;14831;50.474;7.616;2023-01-28T05:36:58;99020;;;-0.4;94.5
27358;BME280;14831;50.474;7.616;2023-01-28T05:41:58;99020;;;-0.4;94.4
27358;BME280;14831;50.474;7.616;2023-01-28T05:46:58;99030;;;-0.4;93.8
27358;BME280;14831;50.474;7.616;2023-01-28T05:51:58;99020;;;-0.4;93.9
27358;BME280;14831;50.474;7.616;2023-01-28T05:56:58;99020;;;-0.4;93.6
27358;BME280;14831;50.474;7.616;2023-01-28T06:01:58;99020;;;-0.4;93.7
27358;BME280;14831;50.474;7.616;2023-01-28T06:06:58;99020;;;-0.4;93.4
27358;BME280;14831;50.474;7.616;2023-01-28T06:11:58;99030;;;-0.4;92.9
27358;BME280;14831;50.474;7.616;2023-01-28T06:16:58;99040;;;-0.4;92.8
27358;BME280;14831;50.474;7.616;2023-01-28T06:21:58;99050;;;-0.4;93.0
27358;BME280;14831;50.474;7.616;2023-01-28T06:26:58;99060;;;-0.4;93.2
27358;BME280;14831;50.474;7.616;2023-01-28T06:31:58;99040;;;-0.5;93.4
27358;BME280;14831;50.474;7.616;2023-01-28T06:36:58;99050;;;-0.5;91.9
27358;BME280;14831;50.474;7.616;2023-01-28T06:41:58;99060;;;-0.4;91.9
27358;BME280;14831;50.474;7.616;2023-01-28T06:46:59;99050;;;-0.5;91.3
27358;BME280;14831;50.474;7.616;2023-01-28T06:51:58;99060;;;-0.5;90.8
27358;BME280;14831;50.474;7.616;2023-01-28T06:56:58;99070;;;-0.5;91.0
27358;BME280;14831;50.474;7.616;2023-01-28T07:01:58;99080;;;-0.4;91.0
27358;BME280;14831;50.474;7.616;2023-01-28T07:06:58;99080;;;-0.5;90.5
27358;BME280;14831;50.474;7.616;2023-01-28T07:11:58;99090;;;-0.5;91.1
27358;BME280;14831;50.474;7.616;2023-01-28T07:16:58;99090;;;-0.5;90.5
27358;BME280;14831;50.474;7.616;2023-01-28T07:21:58;99100;;;-0.5;91.0
27358;BME280;14831;50.474;7.616;2023-01-28T07:26:58;99100;;;-0.6;90.4
27358;BME280;14831;50.474;7.616;2023-01-28T07:31:58;99100;;;-0.5;91.5
27358;BME280;14831;50.474;7.616;2023-01-28T07:36:58;99090;;;-0.6;91.1
27358;BME280;14831;50.474;7.616;2023-01-28T07:41:58;99090;;;-0.6;90.3
27358;BME280;14831;50.474;7.616;2023-01-28T07:46:58;99090;;;-0.6;89.6
27358;BME280;14831;50.474;7.616;2023-01-28T07:51:58;99090;;;-0.5;90.4
27358;BME280;14831;50.474;7.616;2023-01-28T07:56:58;99100;;;-0.5;90.7
27358;BME280;14831;50.474;7.616;2023-01-28T08:01:58;99080;;;-0.5;89.4
27358;BME280;14831;50.474;7.616;2023-01-28T08:06:58;99080;;;-0.4;89.5
27358;BME280;14831;50.474;7.616;2023-01-28T08:11:58;99080;;;-0.4;88.0
27358;BME280;14831;50.474;7.616;2023-01-28T08:16:58;99080;;;-0.3;87.8
27358;BME280;14831;50.474;7.616;2023-01-28T08:21:58;99090;;;-0.3;87.1
27358;BME280;14831;50.474;7.616;2023-01-28T08:26:58;99100;;;-0.4;86.9
27358;BME280;14831;50.474;7.616;2023-01-28T08:31:58;99120;;;-0.3;87.5
27358;BME280;14831;50.474;7.616;2023-01-28T08:36:58;99110;;;-0.4;88.4
27358;BME280;14831;50.474;7.616;2023-01-28T08:41:58;99130;;;-0.4;88.3
27358;BME280;14831;50.474;7.616;2023-01-28T08:46:58;99120;;;-0.3;89.3
27358;BME280;14831;50.474;7.616;2023-01-28T08:51:58;99120;;;-0.3;88.7
27358;BME280;14831;50.474;7.616;2023-01-28T08:56:58;99130;;;-0.2;87.4
27358;BME280;14831;50.474;7.616;2023-01-28T09:01:58;99130;;;-0.3;85.8
27358;BME280;14831;50.474;7.616;2023-01-28T09:06:58;99120;;;-0.3;85.4
27358;BME280;14831;50.474;7.616;2023-01-28T09:11:58;99130;;;-0.3;85.0
27358;BME280;14831;50.474;7.616;2023-01-28T09:16:58;99130;;;-0.2;85.6
27358;BME280;14831;50.474;7.616;2023-01-28T09:21:58;99150;;;-0.2;85.6
27358;BME280;14831;50.474;7.616;2023-01-28T09:26:58;99130;;;-0.2;85.4
27358;BME280;14831;50.474;7.616;2023-01-28T09:31:58;99140;;;-0.2;83.6
27358;BME280;14831;50.474;7.616;2023-01-28T09:36:58;99140;;;-0.1;84.1
27358;BME280;14831;50.474;7.616;2023-01-28T09:42:03;99150;;;0.0;79.6
27358;BME280;14831;50.474;7.616;2023-01-28T09:46:59;99160;;;-0.0;83.7
27358;BME280;14831;50.474;7.616;2023-01-28T09:51:58;99160;;;-0.0;82.8
27358;BME280;14831;50.474;7.616;2023-01-28T09:57:00;99170;;;0.0;77.5
27358;BME280;14831;50.474;7.616;2023-01-28T10:01:59;99180;;;0.1;76.8
27358;BME280;14831;50.474;7.616;2023-01-28T10:07:01;99180;;;0.3;77.7
27358;BME280;14831;50.474;7.616;2023-01-28T10:12:02;99190;;;0.3;76.2
27358;BME280;14831;50.474;7.616;2023-01-28T10:16:59;99190;;;0.3;75.0
27358;BME280;14831;50.474;7.616;2023-01-28T10:21:59;99200;;;0.2;71.6
27358;BME280;14831;50.474;7.616;2023-01-28T10:26:58;99200;;;0.1;71.5
27358;BME280;14831;50.474;7.616;2023-01-28T10:31:59;99210;;;0.2;71.1
27358;BME280;14831;50.474;7.616;2023-01-28T10:36:58;99200;;;0.2;71.5
27358;BME280;14831;50.474;7.616;2023-01-28T10:41:58;99200;;;0.3;72.9
27358;BME280;14831;50.474;7.616;2023-01-28T10:46:59;99190;;;0.3;72.8
27358;BME280;14831;50.474;7.616;2023-01-28T10:51:58;99200;;;0.2;71.4
27358;BME280;14831;50.474;7.616;2023-01-28T10:56:59;99210;;;0.3;72.7
27358;BME280;14831;50.474;7.616;2023-01-28T11:01:59;99210;;;0.2;71.3
27358;BME280;14831;50.474;7.616;2023-01-28T11:06:59;99190;;;0.3;73.2
27358;BME280;14831;50.474;7.616;2023-01-28T11:12:09;99210;;;0.4;73.0
27358;BME280;14831;50.474;7.616;2023-01-28T11:16:58;99200;;;0.3;72.9
27358;BME280;14831;50.474;7.616;2023-01-28T11:21:58;99190;;;0.3;72.0
27358;BME280;14831;50.474;7.616;2023-01-28T11:27:00;99190;;;0.3;70.9
27358;BME280;14831;50.474;7.616;2023-01-28T11:31:58;99190;;;0.4;70.3
27358;BME280;14831;50.474;7.616;2023-01-28T11:37:01;99200;;;0.3;70.5
27358;BME280;14831;50.474;7.616;2023-01-28T11:42:15;99200;;;0.4;70.7
27358;BME280;14831;50.474;7.616;2023-01-28T11:47:03;99180;;;0.6;72.4
27358;BME280;14831;50.474;7.616;2023-01-28T11:52:00;99180;;;0.4;70.6
27358;BME280;14831;50.474;7.616;2023-01-28T11:57:03;99180;;;0.3;69.8
27358;BME280;14831;50.474;7.616;2023-01-28T12:01:59;99170;;;0.4;70.6
27358;BME280;14831;50.474;7.616;2023-01-28T12:07:03;99180;;;0.4;70.3
27358;BME280;14831;50.474;7.616;2023-01-28T12:12:02;99170;;;0.3;71.0
27358;BME280;14831;50.474;7.616;2023-01-28T12:17:01;99170;;;0.2;70.9
27358;BME280;14831;50.474;7.616;2023-01-28T12:22:05;99170;;;0.2;71.3
27358;BME280;14831;50.474;7.616;2023-01-28T12:27:00;99170;;;0.2;72.8
27358;BME280;14831;50.474;7.616;2023-01-28T12:32:02;99160;;;0.0;73.1
27358;BME280;14831;50.474;7.616;2023-01-28T12:37:00;99170;;;0.0;73.7
27358;BME280;14831;50.474;7.616;2023-01-28T12:42:00;99170;;;0.1;74.6
27358;BME280;14831;50.474;7.616;2023-01-28T12:46:59;99170;;;-0.1;78.7
27358;BME280;14831;50.474;7.616;2023-01-28T12:52:00;99180;;;-0.1;79.8
27358;BME280;14831;50.474;7.616;2023-01-28T12:56:58;99170;;;-0.2;79.1
27358;BME280;14831;50.474;7.616;2023-01-28T13:02:00;99170;;;-0.2;78.8
27358;BME280;14831;50.474;7.616;2023-01-28T13:06:59;99170;;;-0.3;77.8
27358;BME280;14831;50.474;7.616;2023-01-28T13:11:58;99180;;;-0.2;78.2
27358;BME280;14831;50.474;7.616;2023-01-28T13:17:07;99170;;;-0.4;77.4
27358;BME280;14831;50.474;7.616;2023-01-28T13:22:08;99160;;;-0.4;77.3
27358;BME280;14831;50.474;7.616;2023-01-28T13:27:08;99180;;;-0.3;76.1
27358;BME280;14831;50.474;7.616;2023-01-28T13:31:59;99170;;;-0.1;76.4
27358;BME280;14831;50.474;7.616;2023-01-28T13:37:00;99170;;;-0.4;75.6
27358;BME280;14831;50.474;7.616;2023-01-28T13:42:07;99170;;;-0.4;76.6
27358;BME280;14831;50.474;7.616;2023-01-28T13:46:59;99190;;;-0.4;76.6
27358;BME280;14831;50.474;7.616;2023-01-28T13:52:00;99170;;;-0.5;76.9
27358;BME280;14831;50.474;7.616;2023-01-28T13:57:04;99180;;;-0.5;77.5
27358;BME280;14831;50.474;7.616;2023-01-28T14:02:02;99190;;;-0.7;76.2
27358;BME280;14831;50.474;7.616;2023-01-28T14:07:02;99170;;;-0.7;76.4
27358;BME280;14831;50.474;7.616;2023-01-28T14:12:04;99170;;;-0.7;76.9
27358;BME280;14831;50.474;7.616;2023-01-28T14:16:59;99180;;;-0.7;75.0
27358;BME280;14831;50.474;7.616;2023-01-28T14:21:58;99170;;;-0.8;75.5
27358;BME280;14831;50.474;7.616;2023-01-28T14:27:00;99170;;;-0.7;75.5
27358;BME280;14831;50.474;7.616;2023-01-28T14:32:02;99160;;;-0.8;74.5
27358;BME280;14831;50.474;7.616;2023-01-28T14:36:59;99170;;;-0.7;74.3
27358;BME280;14831;50.474;7.616;2023-01-28T14:41:59;99170;;;-0.9;75.2
27358;BME280;14831;50.474;7.616;2023-01-28T14:47:04;99170;;;-0.8;75.2
27358;BME280;14831;50.474;7.616;2023-01-28T14:52:03;99140;;;-0.9;75.1
27358;BME280;14831;50.474;7.616;2023-01-28T14:57:02;99140;;;-0.9;75.8
27358;BME280;14831;50.474;7.616;2023-01-28T15:01:58;99120;;;-0.7;76.0
27358;BME280;14831;50.474;7.616;2023-01-28T15:07:00;99140;;;-0.8;75.9
27358;BME280;14831;50.474;7.616;2023-01-28T15:11:58;99150;;;-0.8;74.9
27358;BME280;14831;50.474;7.616;2023-01-28T15:16:58;99160;;;-0.8;76.0
27358;BME280;14831;50.474;7.616;2023-01-28T15:21:59;99180;;;-0.8;76.6
27358;BME280;14831;50.474;7.616;2023-01-28T15:26:58;99190;;;-0.9;76.7
27358;BME280;14831;50.474;7.616;2023-01-28T15:31:58;99170;;;-0.9;77.4
27358;BME280;14831;50.474;7.616;2023-01-28T15:36:58;99160;;;-0.9;77.0
27358;BME280;14831;50.474;7.616;2023-01-28T15:41:58;99160;;;-0.9;76.8
27358;BME280;14831;50.474;7.616;2023-01-28T15:46:59;99170;;;-1.0;76.9
27358;BME280;14831;50.474;7.616;2023-01-28T15:51:58;99190;;;-1.0;77.1
27358;BME280;14831;50.474;7.616;2023-01-28T15:57:07;99180;;;-1.0;76.8
27358;BME280;14831;50.474;7.616;2023-01-28T16:02:08;99180;;;-1.1;77.6
27358;BME280;14831;50.474;7.616;2023-01-28T16:06:58;99180;;;-1.2;76.7
27358;BME280;14831;50.474;7.616;2023-01-28T16:12:00;99170;;;-1.2;77.6
27358;BME280;14831;50.474;7.616;2023-01-28T16:16:58;99180;;;-1.2;77.3
27358;BME280;14831;50.474;7.616;2023-01-28T16:21:58;99180;;;-1.4;77.6
27358;BME280;14831;50.474;7.616;2023-01-28T16:26:59;99170;;;-1.3;78.4
27358;BME280;14831;50.474;7.616;2023-01-28T16:31:58;99170;;;-1.3;77.5
27358;BME280;14831;50.474;7.616;2023-01-28T16:36:58;99170;;;-1.5;79.0
27358;BME280;14831;50.474;7.616;2023-01-28T16:41:58;99160;;;-1.5;79.6
27358;BME280;14831;50.474;7.616;2023-01-28T16:46:58;99150;;;-1.6;79.2
27358;BME280;14831;50.474;7.616;2023-01-28T16:51:58;99170;;;-1.7;80.2
27358;BME280;14831;50.474;7.616;2023-01-28T16:56:58;99160;;;-1.8;83.2
27358;BME280;14831;50.474;7.616;2023-01-28T17:01:58;99170;;;-1.9;81.1
27358;BME280;14831;50.474;7.616;2023-01-28T17:06:58;99180;;;-1.8;81.2
27358;BME280;14831;50.474;7.616;2023-01-28T17:11:58;99170;;;-1.7;79.7
27358;BME280;14831;50.474;7.616;2023-01-28T17:16:58;99180;;;-1.8;80.3
27358;BME280;14831;50.474;7.616;2023-01-28T17:21:58;99210;;;-1.7;79.5
27358;BME280;14831;50.474;7.616;2023-01-28T17:26:58;99220;;;-1.6;80.0
27358;BME280;14831;50.474;7.616;2023-01-28T17:31:58;99240;;;-1.6;79.1
27358;BME280;14831;50.474;7.616;2023-01-28T17:36:58;99260;;;-1.6;80.3
27358;BME280;14831;50.474;7.616;2023-01-28T17:41:58;99270;;;-1.7;80.1
27358;BME280;14831;50.474;7.616;2023-01-28T17:46:58;99270;;;-1.6;80.5
27358;BME280;14831;50.474;7.616;2023-01-28T17:51:58;99280;;;-1.6;80.5
27358;BME280;14831;50.474;7.616;2023-01-28T17:56:58;99280;;;-1.5;80.3
27358;BME280;14831;50.474;7.616;2023-01-28T18:01:58;99280;;;-1.5;79.3
27358;BME280;14831;50.474;7.616;2023-01-28T18:06:58;99290;;;-1.4;78.7
27358;BME280;14831;50.474;7.616;2023-01-28T18:11:58;99270;;;-1.4;79.7
27358;BME280;14831;50.474;7.616;2023-01-28T18:16:58;99270;;;-1.4;79.3
27358;BME280;14831;50.474;7.616;2023-01-28T18:21:58;99250;;;-1.5;78.3
27358;BME280;14831;50.474;7.616;2023-01-28T18:26:59;99270;;;-1.5;78.2
27358;BME280;14831;50.474;7.616;2023-01-28T18:31:58;99250;;;-1.5;78.2
27358;BME280;14831;50.474;7.616;2023-01-28T18:36:58;99260;;;-1.5;78.6
27358;BME280;14831;50.474;7.616;2023-01-28T18:41:58;99280;;;-1.5;79.2
27358;BME280;14831;50.474;7.616;2023-01-28T18:46:58;99290;;;-1.5;78.4
27358;BME280;14831;50.474;7.616;2023-01-28T18:51:58;99300;;;-1.5;78.7
27358;BME280;14831;50.474;7.616;2023-01-28T18:56:58;99290;;;-1.5;79.2
27358;BME280;14831;50.474;7.616;2023-01-28T19:01:59;99270;;;-1.5;78.3
27358;BME280;14831;50.474;7.616;2023-01-28T19:06:58;99280;;;-1.6;79.2
27358;BME280;14831;50.474;7.616;2023-01-28T19:11:58;99280;;;-1.6;78.0
27358;BME280;14831;50.474;7.616;2023-01-28T19:16:58;99290;;;-1.6;78.5
27358;BME280;14831;50.474;7.616;2023-01-28T19:21:58;99300;;;-1.6;78.6
27358;BME280;14831;50.474;7.616;2023-01-28T19:26:58;99310;;;-1.6;78.4
27358;BME280;14831;50.474;7.616;2023-01-28T19:31:58;99310;;;-1.6;78.9
27358;BME280;14831;50.474;7.616;2023-01-28T19:36:58;99300;;;-1.6;79.5
27358;BME280;14831;50.474;7.616;2023-01-28T19:41:58;99300;;;-1.6;79.2
27358;BME280;14831;50.474;7.616;2023-01-28T19:46:58;99300;;;-1.7;79.2
27358;BME280;14831;50.474;7.616;2023-01-28T19:51:58;99310;;;-1.7;78.2
27358;BME280;14831;50.474;7.616;2023-01-28T19:56:58;99310;;;-1.7;78.3
27358;BME280;14831;50.474;7.616;2023-01-28T20:01:58;99310;;;-1.7;79.0
27358;BME280;14831;50.474;7.616;2023-01-28T20:06:58;99300;;;-1.7;79.6
27358;BME280;14831;50.474;7.616;2023-01-28T20:11:58;99300;;;-1.7;79.6
27358;BME280;14831;50.474;7.616;2023-01-28T20:16:58;99290;;;-1.7;79.9
27358;BME280;14831;50.474;7.616;2023-01-28T20:21:58;99310;;;-1.8;79.6
27358;BME280;14831;50.474;7.616;2023-01-28T20:26:58;99300;;;-1.9;79.1
27358;BME280;14831;50.474;7.616;2023-01-28T20:31:58;99320;;;-1.9;80.1
27358;BME280;14831;50.474;7.616;2023-01-28T20:36:58;99310;;;-1.9;80.2
27358;BME280;14831;50.474;7.616;2023-01-28T20:41:58;99320;;;-1.9;80.6
27358;BME280;14831;50.474;7.616;2023-01-28T20:46:58;99310;;;-1.9;80.7
27358;BME280;14831;50.474;7.616;2023-01-28T20:51:58;99310;;;-2.0;80.3
27358;BME280;14831;50.474;7.616;2023-01-28T20:56:58;99300;;;-2.0;80.7
27358;BME280;14831;50.474;7.616;2023-01-28T21:01:58;99300;;;-2.1;80.3
27358;BME280;14831;50.474;7.616;2023-01-28T21:06:58;99300;;;-2.1;80.4
27358;BME280;14831;50.474;7.616;2023-01-28T21:11:58;99290;;;-2.2;80.5
27358;BME280;14831;50.474;7.616;2023-01-28T21:16:58;99280;;;-2.2;81.6
27358;BME280;14831;50.474;7.616;2023-01-28T21:21:58;99300;;;-2.2;81.2
27358;BME280;14831;50.474;7.616;2023-01-28T21:26:58;99300;;;-2.3;81.5
27358;BME280;14831;50.474;7.616;2023-01-28T21:31:58;99310;;;-2.4;82.0
27358;BME280;14831;50.474;7.616;2023-01-28T21:36:58;99310;;;-2.4;82.3
27358;BME280;14831;50.474;7.616;2023-01-28T21:41:58;99300;;;-2.4;83.3
27358;BME280;14831;50.474;7.616;2023-01-28T21:46:58;99300;;;-2.5;83.3
27358;BME280;14831;50.474;7.616;2023-01-28T21:51:58;99300;;;-2.5;83.3
27358;BME280;14831;50.474;7.616;2023-01-28T21:56:58;99300;;;-2.4;83.9
27358;BME280;14831;50.474;7.616;2023-01-28T22:01:59;99290;;;-2.5;83.2
27358;BME280;14831;50.474;7.616;2023-01-28T22:06:58;99280;;;-2.5;83.8
27358;BME280;14831;50.474;7.616;2023-01-28T22:11:58;99280;;;-2.5;83.5
27358;BME280;14831;50.474;7.616;2023-01-28T22:16:58;99280;;;-2.5;83.9
27358;BME280;14831;50.474;7.616;2023-01-28T22:21:58;99270;;;-2.4;84.4
27358;BME280;14831;50.474;7.616;2023-01-28T22:26:58;99250;;;-2.4;83.6
27358;BME280;14831;50.474;7.616;2023-01-28T22:31:58;99230;;;-2.5;83.3
27358;BME280;14831;50.474;7.616;2023-01-28T22:36:58;99250;;;-2.5;83.7
27358;BME280;14831;50.474;7.616;2023-01-28T22:41:58;99250;;;-2.6;83.0
27358;BME280;14831;50.474;7.616;2023-01-28T22:46:58;99240;;;-2.6;83.1
27358;BME280;14831;50.474;7.616;2023-01-28T22:51:58;99250;;;-2.6;82.8
27358;BME280;14831;50.474;7.616;2023-01-28T22:56:58;99240;;;-2.7;83.3
27358;BME280;14831;50.474;7.616;2023-01-28T23:01:58;99240;;;-2.8;83.5
27358;BME280;14831;50.474;7.616;2023-01-28T23:06:58;99250;;;-2.8;83.6
27358;BME280;14831;50.474;7.616;2023-01-28T23:11:58;99250;;;-2.8;85.2
27358;BME280;14831;50.474;7.616;2023-01-28T23:16:58;99270;;;-2.9;84.8
27358;BME280;14831;50.474;7.616;2023-01-28T23:21:58;99260;;;-2.8;84.6
27358;BME280;14831;50.474;7.616;2023-01-28T23:26:59;99270;;;-2.7;84.3
27358;BME280;14831;50.474;7.616;2023-01-28T23:31:59;99260;;;-2.6;83.7
27358;BME280;14831;50.474;7.616;2023-01-28T23:36:58;99260;;;-2.5;84.5
27358;BME280;14831;50.474;7.616;2023-01-28T23:42:00;99260;;;-2.5;85.0
27358;BME280;14831;50.474;7.616;2023-01-28T23:46:58;99260;;;-2.6;85.5
27358;BME280;14831;50.474;7.616;2023-01-28T23:51:58;99250;;;-2.6;86.4
27358;BME280;14831;50.474;7.616;2023-01-28T23:56:58;99260;;;-2.6;86.7
